Time;durP1;ratioP1;P1;durP2;ratioP2;P2;SDS_P1;SDS_P2;PMS_P1;PMS_P2;Temp;Humidity;BMP_temperature;BMP_pressure;BME280_temperature;BME280_humidity;BME280_pressure;Samples;Min_cycle;Max_cycle;Signal;HPM_P1;HPM_P2
2024/04/10 00:00:50;;;;;;;;;;;;;;;;;;2031116;26;7008;-65
2024/04/10 00:01:51;;;;;;;;;;;;;;;;;;2033371;26;7004;-65
2024/04/10 00:02:48;;;;;;;;;;;;;;;;;;2032411;26;7004;-65
2024/04/10 00:03:46;;;;;;;;;;;;;;;;;;2032744;26;8075;-64
2024/04/10 00:04:48;;;;;;;;;;;;;;;;;;2032583;26;7080;-64
2024/04/10 00:05:58;;;;;;;;;;;;;;;;;;2032816;26;8067;-64
2024/04/10 00:06:55;;;;;;;;;;;;;;;;;;2032923;26;7494;-64
2024/04/10 00:07:53;;;;;;;;;;;;;;;;;;2032892;26;7004;-65
2024/04/10 00:08:50;;;;;;;;;;;;;;;;;;2033047;26;7065;-65
2024/04/10 00:09:48;;;;;;;;;;;;;;;;;;2031636;26;7999;-65
2024/04/10 00:10:45;;;;;;;;;;;;;;;;;;2033433;26;7129;-64
2024/04/10 00:11:43;;;;;;;;;;;;;;;;;;2032211;26;7003;-64
2024/04/10 00:12:41;;;;;;;;;;;;;;;;;;2032955;26;8099;-64
2024/04/10 00:13:38;;;;;;;;;;;;;;;;;;2033750;26;8663;-64
2024/04/10 00:14:39;;;;;;;;;;;;;;;;;;2033224;26;7003;-64
2024/04/10 00:15:37;;;;;;;;;;;;;;;;;;2032656;26;7004;-65
2024/04/10 00:16:34;;;;;;;;;;;;;;;;;;2033314;26;7004;-65
2024/04/10 00:17:32;;;;;;;;;;;;;;;;;;2033558;26;7000;-64
2024/04/10 00:18:31;;;;;;;;;;;;;;;;;;2033259;26;7066;-65
2024/04/10 00:19:29;;;;;;;;;;;;;;;;;;2032681;26;7004;-65
2024/04/10 00:20:26;;;;;;;;;;;;;;;;;;2033039;26;7003;-65
2024/04/10 00:21:24;;;;;;;;;;;;;;;;;;2032268;26;7367;-65
2024/04/10 00:22:21;;;;;;;;;;;;;;;;;;2032876;26;8122;-64
2024/04/10 00:23:19;;;;;;;;;;;;;;;;;;2032639;26;7008;-64
2024/04/10 00:24:16;;;;;;;;;;;;;;;;;;2034346;26;7004;-65
2024/04/10 00:25:14;;;;;;;;;;;;;;;;;;2033242;26;7650;-64
2024/04/10 00:26:11;;;;;;;;;;;;;;;;;;2030977;26;6999;-65
2024/04/10 00:27:09;;;;;;;;;;;;;;;;;;2033523;26;7008;-65
2024/04/10 00:28:06;;;;;;;;;;;;;;;;;;2031419;26;7004;-64
2024/04/10 00:29:04;;;;;;;;;;;;;;;;;;2033020;26;7004;-64
2024/04/10 00:30:01;;;;;;;;;;;;;;;;;;2032609;26;8190;-64
2024/04/10 00:31:04;;;;;;;;;;;;;;;;;;2032922;26;7138;-65
2024/04/10 00:32:04;;;;;;;;;;;;;;;;;;2031947;26;7066;-64
2024/04/10 00:33:01;;;;;;;;;;;;;;;;;;2032932;26;7004;-65
2024/04/10 00:33:59;;;;;;;;;;;;;;;;;;2033025;26;7012;-64
2024/04/10 00:34:56;;;;;;;;;;;;;;;;;;2033189;26;7004;-65
2024/04/10 00:36:03;;;;;;;;;;;;;;;;;;2033067;26;7335;-64
2024/04/10 00:37:01;;;;;;;;;;;;;;;;;;2033073;26;7004;-64
2024/04/10 00:37:59;;;;;;;;;;;;;;;;;;2033392;26;8080;-64
2024/04/10 00:38:57;;;;;;;;;;;;;;;;;;2033176;26;7004;-65
2024/04/10 00:39:54;;;;;;;;;;;;;;;;;;2033600;26;7004;-65
2024/04/10 00:40:55;;;;;;;;;;;;;;;;;;2032078;26;8245;-65
2024/04/10 00:41:53;;;;;;;;;;;;;;;;;;2031538;26;7004;-64
2024/04/10 00:42:50;;;;;;;;;;;;;;;;;;2032317;26;6996;-64
2024/04/10 00:43:48;;;;;;;;;;;;;;;;;;2033485;26;7207;-64
2024/04/10 00:44:52;;;;;;;;;;;;;;;;;;2032393;26;8248;-65
2024/04/10 00:45:55;;;;;;;;;;;;;;;;;;2032749;26;8075;-64
2024/04/10 00:46:52;;;;;;;;;;;;;;;;;;2033480;26;7494;-65
2024/04/10 00:47:50;;;;;;;;;;;;;;;;;;2030700;26;8144;-64
2024/04/10 00:48:49;;;;;;;;;;;;;;;;;;2032949;26;7062;-64
2024/04/10 00:49:47;;;;;;;;;;;;;;;;;;2033090;26;8112;-64
2024/04/10 00:50:45;;;;;;;;;;;;;;;;;;2032499;26;7011;-65
2024/04/10 00:51:43;;;;;;;;;;;;;;;;;;2030506;26;7536;-65
2024/04/10 00:52:40;;;;;;;;;;;;;;;;;;2031995;26;7308;-65
2024/04/10 00:53:40;;;;;;;;;;;;;;;;;;2033027;26;8099;-65
2024/04/10 00:54:38;;;;;;;;;;;;;;;;;;2032423;26;7036;-64
2024/04/10 00:55:37;;;;;;;;;;;;;;;;;;2033132;26;7012;-65
2024/04/10 00:56:35;;;;;;;;;;;;;;;;;;2030527;26;7012;-64
2024/04/10 00:57:33;;;;;;;;;;;;;;;;;;2032256;26;7004;-64
2024/04/10 00:58:34;;;;;;;;;;;;;;;;;;2032689;26;7122;-64
2024/04/10 00:59:31;;;;;;;;;;;;;;;;;;2032079;26;7004;-64
2024/04/10 01:00:29;;;;;;;;;;;;;;;;;;2029843;26;7444;-64
2024/04/10 01:01:27;;;;;;;;;;;;;;;;;;2032690;26;7066;-65
2024/04/10 01:02:25;;;;;;;;;;;;;;;;;;2032973;26;7066;-64
2024/04/10 01:03:24;;;;;;;;;;;;;;;;;;2033084;26;7065;-65
2024/04/10 01:04:21;;;;;;;;;;;;;;;;;;2032254;26;7074;-64
2024/04/10 01:05:19;;;;;;;;;;;;;;;;;;2029071;26;7366;-65
2024/04/10 01:06:17;;;;;;;;;;;;;;;;;;2032741;26;7004;-65
2024/04/10 01:07:14;;;;;;;;;;;;;;;;;;2032479;26;7018;-65
2024/04/10 01:08:11;;;;;;;;;;;;;;;;;;2017979;26;10035;-64
2024/04/10 01:09:09;;;;;;;;;;;;;;;;;;2029569;26;7003;-64
2024/04/10 01:10:06;;;;;;;;;;;;;;;;;;2029811;26;8028;-64
2024/04/10 01:11:06;;;;;;;;;;;;;;;;;;2032222;26;7005;-64
2024/04/10 01:12:04;;;;;;;;;;;;;;;;;;2030109;26;7065;-64
2024/04/10 01:13:02;;;;;;;;;;;;;;;;;;2032693;26;7008;-65
2024/04/10 01:13:59;;;;;;;;;;;;;;;;;;2030875;26;8057;-64
2024/04/10 01:14:57;;;;;;;;;;;;;;;;;;2032540;26;7147;-65
2024/04/10 01:15:55;;;;;;;;;;;;;;;;;;2032778;26;7062;-64
2024/04/10 01:16:52;;;;;;;;;;;;;;;;;;2030525;26;7004;-65
2024/04/10 01:17:50;;;;;;;;;;;;;;;;;;2032648;26;7065;-64
2024/04/10 01:18:48;;;;;;;;;;;;;;;;;;2032359;26;7449;-65
2024/04/10 01:19:45;;;;;;;;;;;;;;;;;;2029769;26;7139;-64
2024/04/10 01:20:43;;;;;;;;;;;;;;;;;;2032269;26;7012;-64
2024/04/10 01:21:40;;;;;;;;;;;;;;;;;;2032523;26;7012;-64
2024/04/10 01:22:38;;;;;;;;;;;;;;;;;;2032390;26;7004;-64
2024/04/10 01:23:35;;;;;;;;;;;;;;;;;;2032689;26;7003;-64
2024/04/10 01:24:33;;;;;;;;;;;;;;;;;;2032390;26;8076;-65
2024/04/10 01:25:31;;;;;;;;;;;;;;;;;;2032138;26;7066;-65
2024/04/10 01:26:28;;;;;;;;;;;;;;;;;;2031579;26;7012;-64
2024/04/10 01:27:26;;;;;;;;;;;;;;;;;;2030881;26;7494;-64
2024/04/10 01:28:24;;;;;;;;;;;;;;;;;;2031949;26;8066;-64
2024/04/10 01:29:21;;;;;;;;;;;;;;;;;;2030432;26;7033;-65
2024/04/10 01:30:19;;;;;;;;;;;;;;;;;;2030610;26;7005;-65
2024/04/10 01:31:17;;;;;;;;;;;;;;;;;;2032635;26;7132;-64
2024/04/10 01:32:14;;;;;;;;;;;;;;;;;;2018386;26;8471;-64
2024/04/10 01:33:12;;;;;;;;;;;;;;;;;;2029934;26;7012;-64
2024/04/10 01:34:10;;;;;;;;;;;;;;;;;;2028557;26;7004;-64
2024/04/10 01:35:07;;;;;;;;;;;;;;;;;;2032365;26;8428;-65
2024/04/10 01:36:05;;;;;;;;;;;;;;;;;;2032113;26;8059;-65
2024/04/10 01:37:02;;;;;;;;;;;;;;;;;;2030614;26;7197;-64
2024/04/10 01:38:00;;;;;;;;;;;;;;;;;;2030407;26;7074;-64
2024/04/10 01:38:58;;;;;;;;;;;;;;;;;;2030963;26;7336;-64
2024/04/10 01:39:56;;;;;;;;;;;;;;;;;;2033404;26;7316;-64
2024/04/10 01:40:53;;;;;;;;;;;;;;;;;;2033216;26;7004;-65
2024/04/10 01:41:51;;;;;;;;;;;;;;;;;;2033165;26;7142;-64
2024/04/10 01:42:48;;;;;;;;;;;;;;;;;;2033703;26;8059;-64
2024/04/10 01:43:46;;;;;;;;;;;;;;;;;;2033660;26;7091;-64
2024/04/10 01:44:43;;;;;;;;;;;;;;;;;;2032270;26;8074;-64
2024/04/10 01:45:41;;;;;;;;;;;;;;;;;;2033873;26;8112;-64
2024/04/10 01:46:38;;;;;;;;;;;;;;;;;;2031912;26;8048;-64
2024/04/10 01:47:36;;;;;;;;;;;;;;;;;;2032838;26;8103;-65
2024/04/10 01:48:33;;;;;;;;;;;;;;;;;;2034047;26;7008;-64
2024/04/10 01:49:31;;;;;;;;;;;;;;;;;;2033304;26;8050;-64
2024/04/10 01:50:29;;;;;;;;;;;;;;;;;;2031520;26;7342;-64
2024/04/10 01:51:26;;;;;;;;;;;;;;;;;;2033983;26;7117;-65
2024/04/10 01:52:24;;;;;;;;;;;;;;;;;;2033773;26;7073;-64
2024/04/10 01:53:21;;;;;;;;;;;;;;;;;;2033537;26;7166;-65
2024/04/10 01:54:19;;;;;;;;;;;;;;;;;;2033591;26;7003;-65
2024/04/10 01:55:17;;;;;;;;;;;;;;;;;;2033706;26;7011;-64
2024/04/10 01:56:14;;;;;;;;;;;;;;;;;;2033574;26;7418;-64
2024/04/10 01:57:12;;;;;;;;;;;;;;;;;;2031361;26;8084;-64
2024/04/10 01:58:09;;;;;;;;;;;;;;;;;;2034415;26;8032;-64
2024/04/10 01:59:06;;;;;;;;;;;;;;;;;;2034030;26;7070;-64
2024/04/10 02:00:04;;;;;;;;;;;;;;;;;;2033652;26;8118;-64
2024/04/10 02:01:03;;;;;;;;;;;;;;;;;;2033701;26;8196;-64
2024/04/10 02:02:00;;;;;;;;;;;;;;;;;;2031300;26;7137;-65
2024/04/10 02:02:58;;;;;;;;;;;;;;;;;;2033622;26;7004;-64
2024/04/10 02:03:56;;;;;;;;;;;;;;;;;;2032760;26;8121;-64
2024/04/10 02:04:53;;;;;;;;;;;;;;;;;;2033254;26;8084;-65
2024/04/10 02:05:51;;;;;;;;;;;;;;;;;;2033944;26;8053;-64
2024/04/10 02:06:48;;;;;;;;;;;;;;;;;;2033260;26;8043;-64
2024/04/10 02:07:46;;;;;;;;;;;;;;;;;;2033723;26;7005;-64
2024/04/10 02:08:43;;;;;;;;;;;;;;;;;;2031500;26;7127;-64
2024/04/10 02:09:41;;;;;;;;;;;;;;;;;;2031142;26;7098;-64
2024/04/10 02:10:38;;;;;;;;;;;;;;;;;;2033431;26;7125;-64
2024/04/10 02:11:38;;;;;;;;;;;;;;;;;;2033095;26;7126;-64
2024/04/10 02:12:36;;;;;;;;;;;;;;;;;;2034097;26;7004;-64
2024/04/10 02:13:33;;;;;;;;;;;;;;;;;;2032006;26;7300;-64
2024/04/10 02:14:31;;;;;;;;;;;;;;;;;;2032898;26;7066;-65
2024/04/10 02:15:29;;;;;;;;;;;;;;;;;;2033386;26;7148;-64
2024/04/10 02:16:26;;;;;;;;;;;;;;;;;;2033341;26;8241;-65
2024/04/10 02:17:24;;;;;;;;;;;;;;;;;;2033679;26;7125;-64
2024/04/10 02:18:22;;;;;;;;;;;;;;;;;;2033518;26;7007;-64
2024/04/10 02:19:19;;;;;;;;;;;;;;;;;;2033292;26;8054;-64
2024/04/10 02:20:18;;;;;;;;;;;;;;;;;;2033829;26;8181;-65
2024/04/10 02:21:17;;;;;;;;;;;;;;;;;;2031349;26;8013;-64
2024/04/10 02:22:14;;;;;;;;;;;;;;;;;;2033055;26;7191;-65
2024/04/10 02:23:11;;;;;;;;;;;;;;;;;;2033762;26;7156;-64
2024/04/10 02:24:09;;;;;;;;;;;;;;;;;;2033270;26;8028;-65
2024/04/10 02:25:06;;;;;;;;;;;;;;;;;;2031790;26;8089;-64
2024/04/10 02:26:11;;;;;;;;;;;;;;;;;;2034065;26;7012;-65
2024/04/10 02:27:08;;;;;;;;;;;;;;;;;;2034075;26;8070;-64
2024/04/10 02:28:06;;;;;;;;;;;;;;;;;;2030964;26;7137;-64
2024/04/10 02:29:03;;;;;;;;;;;;;;;;;;2033246;26;7446;-64
2024/04/10 02:30:01;;;;;;;;;;;;;;;;;;2033403;26;7003;-64
2024/04/10 02:30:59;;;;;;;;;;;;;;;;;;2032662;26;7005;-64
2024/04/10 02:31:56;;;;;;;;;;;;;;;;;;2033474;26;7005;-64
2024/04/10 02:32:54;;;;;;;;;;;;;;;;;;2033290;26;8099;-64
2024/04/10 02:33:53;;;;;;;;;;;;;;;;;;2033957;26;7375;-64
2024/04/10 02:34:51;;;;;;;;;;;;;;;;;;2033198;26;7137;-64
2024/04/10 02:35:48;;;;;;;;;;;;;;;;;;2033614;26;9255;-64
2024/04/10 02:36:46;;;;;;;;;;;;;;;;;;2033747;26;7004;-65
2024/04/10 02:37:43;;;;;;;;;;;;;;;;;;2033627;26;8071;-64
2024/04/10 02:38:42;;;;;;;;;;;;;;;;;;2032302;26;7062;-64
2024/04/10 02:39:40;;;;;;;;;;;;;;;;;;2032523;26;6996;-65
2024/04/10 02:40:37;;;;;;;;;;;;;;;;;;2033870;26;7012;-64
2024/04/10 02:41:35;;;;;;;;;;;;;;;;;;2033569;26;7438;-64
2024/04/10 02:42:34;;;;;;;;;;;;;;;;;;2033739;26;7421;-64
2024/04/10 02:43:32;;;;;;;;;;;;;;;;;;2032808;26;7335;-64
2024/04/10 02:44:30;;;;;;;;;;;;;;;;;;2033200;26;7311;-65
2024/04/10 02:45:27;;;;;;;;;;;;;;;;;;2031566;26;8123;-64
2024/04/10 02:46:25;;;;;;;;;;;;;;;;;;2033736;26;8116;-64
2024/04/10 02:47:22;;;;;;;;;;;;;;;;;;2033708;26;8072;-64
2024/04/10 02:48:20;;;;;;;;;;;;;;;;;;2033814;26;7007;-64
2024/04/10 02:49:18;;;;;;;;;;;;;;;;;;2033330;26;7387;-65
2024/04/10 02:50:15;;;;;;;;;;;;;;;;;;2033594;26;8120;-64
2024/04/10 02:51:13;;;;;;;;;;;;;;;;;;2030407;26;6999;-64
2024/04/10 02:52:10;;;;;;;;;;;;;;;;;;2033153;26;7629;-64
2024/04/10 02:53:08;;;;;;;;;;;;;;;;;;2033063;26;7311;-64
2024/04/10 02:54:05;;;;;;;;;;;;;;;;;;2033252;26;8134;-64
2024/04/10 02:55:03;;;;;;;;;;;;;;;;;;2034223;26;7194;-64
2024/04/10 02:56:01;;;;;;;;;;;;;;;;;;2033433;26;7000;-64
2024/04/10 02:56:58;;;;;;;;;;;;;;;;;;2031330;26;7188;-64
2024/04/10 02:57:56;;;;;;;;;;;;;;;;;;2033057;26;7065;-63
2024/04/10 02:58:53;;;;;;;;;;;;;;;;;;2033586;26;8076;-64
2024/04/10 02:59:51;;;;;;;;;;;;;;;;;;2033121;26;8044;-65
2024/04/10 03:00:51;;;;;;;;;;;;;;;;;;2033269;26;7159;-65
2024/04/10 03:01:51;;;;;;;;;;;;;;;;;;2033078;26;8196;-65
2024/04/10 03:02:48;;;;;;;;;;;;;;;;;;2033567;26;7004;-64
2024/04/10 03:03:47;;;;;;;;;;;;;;;;;;2033265;26;7000;-64
2024/04/10 03:04:45;;;;;;;;;;;;;;;;;;2032855;26;7004;-64
2024/04/10 03:05:43;;;;;;;;;;;;;;;;;;2033164;26;7151;-64
2024/04/10 03:06:40;;;;;;;;;;;;;;;;;;2032819;26;7066;-64
2024/04/10 03:07:39;;;;;;;;;;;;;;;;;;2032893;26;8136;-64
2024/04/10 03:08:37;;;;;;;;;;;;;;;;;;2032167;26;8078;-64
2024/04/10 03:09:34;;;;;;;;;;;;;;;;;;2033114;26;7004;-64
2024/04/10 03:10:32;;;;;;;;;;;;;;;;;;2033537;26;7004;-64
2024/04/10 03:11:29;;;;;;;;;;;;;;;;;;2032895;26;7066;-64
2024/04/10 03:12:27;;;;;;;;;;;;;;;;;;2030066;26;8139;-64
2024/04/10 03:13:25;;;;;;;;;;;;;;;;;;2033623;26;7043;-65
2024/04/10 03:14:22;;;;;;;;;;;;;;;;;;2029596;26;7004;-64
2024/04/10 03:15:20;;;;;;;;;;;;;;;;;;2029374;26;7004;-64
2024/04/10 03:16:18;;;;;;;;;;;;;;;;;;2033201;26;8071;-64
2024/04/10 03:17:16;;;;;;;;;;;;;;;;;;2034307;26;8083;-64
2024/04/10 03:18:14;;;;;;;;;;;;;;;;;;2032989;26;7004;-64
2024/04/10 03:19:14;;;;;;;;;;;;;;;;;;2032824;26;7000;-65
2024/04/10 03:20:12;;;;;;;;;;;;;;;;;;2033156;26;7000;-64
2024/04/10 03:21:11;;;;;;;;;;;;;;;;;;2033331;26;7191;-64
2024/04/10 03:22:11;;;;;;;;;;;;;;;;;;2033305;26;7072;-64
2024/04/10 03:23:09;;;;;;;;;;;;;;;;;;2030931;26;7178;-64
2024/04/10 03:24:07;;;;;;;;;;;;;;;;;;2033691;26;7004;-64
2024/04/10 03:25:05;;;;;;;;;;;;;;;;;;2033531;26;7132;-64
2024/04/10 03:26:04;;;;;;;;;;;;;;;;;;2032869;26;7013;-65
2024/04/10 03:27:02;;;;;;;;;;;;;;;;;;2033452;26;7000;-64
2024/04/10 03:28:00;;;;;;;;;;;;;;;;;;2033149;26;7143;-65
2024/04/10 03:28:57;;;;;;;;;;;;;;;;;;2032542;26;7066;-64
2024/04/10 03:29:55;;;;;;;;;;;;;;;;;;2032720;26;7998;-64
2024/04/10 03:30:53;;;;;;;;;;;;;;;;;;2033323;26;7081;-65
2024/04/10 03:31:50;;;;;;;;;;;;;;;;;;2033922;26;7071;-64
2024/04/10 03:32:48;;;;;;;;;;;;;;;;;;2031569;26;7004;-64
2024/04/10 03:33:45;;;;;;;;;;;;;;;;;;2033419;26;7066;-64
2024/04/10 03:34:43;;;;;;;;;;;;;;;;;;2033836;26;7060;-64
2024/04/10 03:35:41;;;;;;;;;;;;;;;;;;2033796;26;8026;-64
2024/04/10 03:36:38;;;;;;;;;;;;;;;;;;2033744;26;7004;-66
2024/04/10 03:37:36;;;;;;;;;;;;;;;;;;2033673;26;7004;-66
2024/04/10 03:38:33;;;;;;;;;;;;;;;;;;2031967;26;7074;-66
2024/04/10 03:39:31;;;;;;;;;;;;;;;;;;2033838;26;7066;-66
2024/04/10 03:40:29;;;;;;;;;;;;;;;;;;2033662;26;8100;-66
2024/04/10 03:41:26;;;;;;;;;;;;;;;;;;2034016;26;7123;-67
2024/04/10 03:42:23;;;;;;;;;;;;;;;;;;2034483;26;7004;-66
2024/04/10 03:43:21;;;;;;;;;;;;;;;;;;2031381;26;7004;-64
2024/04/10 03:44:19;;;;;;;;;;;;;;;;;;2033370;26;7012;-66
2024/04/10 03:45:16;;;;;;;;;;;;;;;;;;2034635;26;7945;-66
2024/04/10 03:46:14;;;;;;;;;;;;;;;;;;2034089;26;7066;-67
2024/04/10 03:47:12;;;;;;;;;;;;;;;;;;2034218;26;7139;-66
2024/04/10 03:48:10;;;;;;;;;;;;;;;;;;2033240;26;8112;-67
2024/04/10 03:49:08;;;;;;;;;;;;;;;;;;2032964;26;7414;-66
2024/04/10 03:50:06;;;;;;;;;;;;;;;;;;2032547;26;7067;-66
2024/04/10 03:51:05;;;;;;;;;;;;;;;;;;2032154;26;7004;-64
2024/04/10 03:52:03;;;;;;;;;;;;;;;;;;2034381;26;8399;-66
2024/04/10 03:53:01;;;;;;;;;;;;;;;;;;2034665;26;7164;-66
2024/04/10 03:53:58;;;;;;;;;;;;;;;;;;2033726;26;7008;-66
2024/04/10 03:54:55;;;;;;;;;;;;;;;;;;2033537;26;7004;-65
2024/04/10 03:55:53;;;;;;;;;;;;;;;;;;2033801;26;8099;-66
2024/04/10 03:56:51;;;;;;;;;;;;;;;;;;2032085;26;7008;-66
2024/04/10 03:57:49;;;;;;;;;;;;;;;;;;2032564;26;7004;-65
2024/04/10 03:58:50;;;;;;;;;;;;;;;;;;2033898;26;8068;-66
2024/04/10 03:59:47;;;;;;;;;;;;;;;;;;2034247;26;7004;-65
2024/04/10 04:00:47;;;;;;;;;;;;;;;;;;2033484;26;7005;-66
2024/04/10 04:01:44;;;;;;;;;;;;;;;;;;2033664;26;7128;-66
2024/04/10 04:02:44;;;;;;;;;;;;;;;;;;2032271;26;7390;-66
2024/04/10 04:03:41;;;;;;;;;;;;;;;;;;2033344;26;8043;-65
2024/04/10 04:04:39;;;;;;;;;;;;;;;;;;2033824;26;7012;-66
2024/04/10 04:05:37;;;;;;;;;;;;;;;;;;2033038;26;8263;-66
2024/04/10 04:06:37;;;;;;;;;;;;;;;;;;2033729;26;8389;-66
2024/04/10 04:07:34;;;;;;;;;;;;;;;;;;2033766;26;8057;-66
2024/04/10 04:08:32;;;;;;;;;;;;;;;;;;2030301;26;7127;-66
2024/04/10 04:09:30;;;;;;;;;;;;;;;;;;2033670;26;7134;-66
2024/04/10 04:10:27;;;;;;;;;;;;;;;;;;2033348;26;7263;-66
2024/04/10 04:11:25;;;;;;;;;;;;;;;;;;2033550;26;7024;-66
2024/04/10 04:12:23;;;;;;;;;;;;;;;;;;2033260;26;7473;-66
2024/04/10 04:13:21;;;;;;;;;;;;;;;;;;2031455;26;8022;-66
2024/04/10 04:14:19;;;;;;;;;;;;;;;;;;2033823;26;7923;-66
2024/04/10 04:15:16;;;;;;;;;;;;;;;;;;2033691;26;8115;-66
2024/04/10 04:16:14;;;;;;;;;;;;;;;;;;2032769;26;7421;-65
2024/04/10 04:17:11;;;;;;;;;;;;;;;;;;2032626;26;7533;-66
2024/04/10 04:18:09;;;;;;;;;;;;;;;;;;2033147;26;7065;-66
2024/04/10 04:19:07;;;;;;;;;;;;;;;;;;2033190;26;7004;-66
2024/04/10 04:20:06;;;;;;;;;;;;;;;;;;2033496;26;7456;-66
2024/04/10 04:22:17;;;;;;;;;;;;;;;;;;2081342;25;6840;-65
2024/04/10 04:23:14;;;;;;;;;;;;;;;;;;2067845;26;8245;-65
2024/04/10 04:24:12;;;;;;;;;;;;;;;;;;2064865;26;7132;-66
2024/04/10 04:25:10;;;;;;;;;;;;;;;;;;2067172;26;7004;-65
2024/04/10 04:26:07;;;;;;;;;;;;;;;;;;2067582;26;7003;-66
2024/04/10 04:27:05;;;;;;;;;;;;;;;;;;2067618;26;7171;-66
2024/04/10 04:28:04;;;;;;;;;;;;;;;;;;2067188;26;8019;-65
2024/04/10 04:29:01;;;;;;;;;;;;;;;;;;2067800;26;7062;-66
2024/04/10 04:29:59;;;;;;;;;;;;;;;;;;2068086;26;7008;-65
2024/04/10 04:30:57;;;;;;;;;;;;;;;;;;2067592;26;7020;-66
2024/04/10 04:31:54;;;;;;;;;;;;;;;;;;2067847;26;7058;-65
2024/04/10 04:32:52;;;;;;;;;;;;;;;;;;2067678;26;7061;-65
2024/04/10 04:33:50;;;;;;;;;;;;;;;;;;2067080;26;7350;-66
2024/04/10 04:34:48;;;;;;;;;;;;;;;;;;2067677;26;8115;-65
2024/04/10 04:35:46;;;;;;;;;;;;;;;;;;2067309;26;9241;-65
2024/04/10 04:36:43;;;;;;;;;;;;;;;;;;2068493;26;7005;-65
2024/04/10 04:37:42;;;;;;;;;;;;;;;;;;2067892;26;7003;-65
2024/04/10 04:38:39;;;;;;;;;;;;;;;;;;2067784;26;8127;-65
2024/04/10 04:39:37;;;;;;;;;;;;;;;;;;2067548;26;8008;-65
2024/04/10 04:40:35;;;;;;;;;;;;;;;;;;2067224;26;6999;-65
2024/04/10 04:41:33;;;;;;;;;;;;;;;;;;2066802;26;8983;-65
2024/04/10 04:42:31;;;;;;;;;;;;;;;;;;2066341;26;8364;-65
2024/04/10 04:43:28;;;;;;;;;;;;;;;;;;2067700;26;8183;-65
2024/04/10 04:44:26;;;;;;;;;;;;;;;;;;2068303;26;7008;-65
2024/04/10 04:45:23;;;;;;;;;;;;;;;;;;2067603;26;7082;-65
2024/04/10 04:46:21;;;;;;;;;;;;;;;;;;2067200;26;7185;-66
2024/04/10 04:47:18;;;;;;;;;;;;;;;;;;2067768;26;7011;-65
2024/04/10 04:48:16;;;;;;;;;;;;;;;;;;2067217;26;7004;-66
2024/04/10 04:49:14;;;;;;;;;;;;;;;;;;2064365;26;7028;-62
2024/04/10 04:50:13;;;;;;;;;;;;;;;;;;2067246;26;7136;-65
2024/04/10 04:51:11;;;;;;;;;;;;;;;;;;2068461;26;7140;-65
2024/04/10 04:52:09;;;;;;;;;;;;;;;;;;2066805;26;8188;-65
2024/04/10 04:53:06;;;;;;;;;;;;;;;;;;2067175;26;7130;-65
2024/04/10 04:54:04;;;;;;;;;;;;;;;;;;2066977;26;8106;-65
2024/04/10 04:55:02;;;;;;;;;;;;;;;;;;2066910;26;7004;-65
2024/04/10 04:55:59;;;;;;;;;;;;;;;;;;2065973;26;7004;-65
2024/04/10 04:56:57;;;;;;;;;;;;;;;;;;2066087;26;7011;-65
2024/04/10 04:57:54;;;;;;;;;;;;;;;;;;2065442;26;8262;-64
2024/04/10 04:58:52;;;;;;;;;;;;;;;;;;2067339;26;7190;-65
2024/04/10 04:59:50;;;;;;;;;;;;;;;;;;2067309;26;7382;-65
2024/04/10 05:00:47;;;;;;;;;;;;;;;;;;2067475;26;7012;-63
2024/04/10 05:01:45;;;;;;;;;;;;;;;;;;2067338;26;7004;-65
2024/04/10 05:02:42;;;;;;;;;;;;;;;;;;2066690;26;7004;-65
2024/04/10 05:05:00;;;;;;;;;;;;;;;;;;2065006;26;7077;-65
2024/04/10 05:05:58;;;;;;;;;;;;;;;;;;2066548;26;7311;-65
2024/04/10 05:06:55;;;;;;;;;;;;;;;;;;2067775;26;6999;-65
2024/04/10 05:07:53;;;;;;;;;;;;;;;;;;2067092;26;7060;-64
2024/04/10 05:08:50;;;;;;;;;;;;;;;;;;2067485;26;7365;-65
2024/04/10 05:09:49;;;;;;;;;;;;;;;;;;2067312;26;8087;-65
2024/04/10 05:10:46;;;;;;;;;;;;;;;;;;2067166;26;7004;-65
2024/04/10 05:11:44;;;;;;;;;;;;;;;;;;2066976;26;7062;-65
2024/04/10 05:12:42;;;;;;;;;;;;;;;;;;2066531;26;8920;-65
2024/04/10 05:13:40;;;;;;;;;;;;;;;;;;2067325;26;8120;-65
2024/04/10 05:14:37;;;;;;;;;;;;;;;;;;2068124;26;7004;-66
2024/04/10 05:15:35;;;;;;;;;;;;;;;;;;2067243;26;7191;-65
2024/04/10 05:16:32;;;;;;;;;;;;;;;;;;2067297;26;7011;-65
2024/04/10 05:17:30;;;;;;;;;;;;;;;;;;2066803;26;7004;-65
2024/04/10 05:18:28;;;;;;;;;;;;;;;;;;2067328;26;7385;-65
2024/04/10 05:19:25;;;;;;;;;;;;;;;;;;2067446;26;7003;-66
2024/04/10 05:20:23;;;;;;;;;;;;;;;;;;2067164;26;7011;-65
2024/04/10 05:21:21;;;;;;;;;;;;;;;;;;2064581;26;7016;-65
2024/04/10 05:22:18;;;;;;;;;;;;;;;;;;2081397;26;7156;-65
2024/04/10 05:23:16;;;;;;;;;;;;;;;;;;2081023;26;8138;-65
2024/04/10 05:24:13;;;;;;;;;;;;;;;;;;2080997;26;8071;-65
2024/04/10 05:25:11;;;;;;;;;;;;;;;;;;2080739;26;8057;-64
2024/04/10 05:26:09;;;;;;;;;;;;;;;;;;2077434;26;8029;-65
2024/04/10 05:27:09;;;;;;;;;;;;;;;;;;2080244;26;7397;-65
2024/04/10 05:28:07;;;;;;;;;;;;;;;;;;2092661;25;7003;-65
2024/04/10 05:29:04;;;;;;;;;;;;;;;;;;2092680;25;7126;-65
2024/04/10 05:30:06;;;;;;;;;;;;;;;;;;2079688;26;7208;-65
2024/04/10 05:31:09;;;;;;;;;;;;;;;;;;2079963;26;7960;-65
2024/04/10 05:32:07;;;;;;;;;;;;;;;;;;2080266;26;7011;-66
2024/04/10 05:33:05;;;;;;;;;;;;;;;;;;2076588;26;8110;-65
2024/04/10 05:34:03;;;;;;;;;;;;;;;;;;2073949;26;8437;-65
2024/04/10 05:35:01;;;;;;;;;;;;;;;;;;2074653;26;7004;-65
2024/04/10 05:36:00;;;;;;;;;;;;;;;;;;2074434;26;7000;-65
2024/04/10 05:36:57;;;;;;;;;;;;;;;;;;2074960;26;8071;-65
2024/04/10 05:37:54;;;;;;;;;;;;;;;;;;2074766;26;7003;-65
2024/04/10 05:38:53;;;;;;;;;;;;;;;;;;2075155;26;7065;-65
2024/04/10 05:40:05;;;;;;;;;;;;;;;;;;2075097;26;7164;-65
2024/04/10 05:41:03;;;;;;;;;;;;;;;;;;2074514;26;7007;-65
2024/04/10 05:42:06;;;;;;;;;;;;;;;;;;2075414;26;7012;-65
2024/04/10 05:43:04;;;;;;;;;;;;;;;;;;2075218;26;7066;-65
2024/04/10 05:44:02;;;;;;;;;;;;;;;;;;2072720;26;8102;-65
2024/04/10 05:45:00;;;;;;;;;;;;;;;;;;2074654;26;8115;-66
2024/04/10 05:45:59;;;;;;;;;;;;;;;;;;2075991;26;8072;-65
2024/04/10 05:46:56;;;;;;;;;;;;;;;;;;2075659;26;8428;-65
2024/04/10 05:47:54;;;;;;;;;;;;;;;;;;2075095;26;7004;-65
2024/04/10 05:48:51;;;;;;;;;;;;;;;;;;2074459;26;7249;-65
2024/04/10 05:49:49;;;;;;;;;;;;;;;;;;2074786;26;7003;-65
2024/04/10 05:50:47;;;;;;;;;;;;;;;;;;2075094;26;8278;-65
2024/04/10 05:51:44;;;;;;;;;;;;;;;;;;2074511;26;8081;-65
2024/04/10 05:52:42;;;;;;;;;;;;;;;;;;2087425;26;7944;-65
2024/04/10 05:53:42;;;;;;;;;;;;;;;;;;2088667;26;7065;-65
2024/04/10 05:54:40;;;;;;;;;;;;;;;;;;2076397;26;7045;-66
2024/04/10 05:55:37;;;;;;;;;;;;;;;;;;2074959;26;7135;-65
2024/04/10 05:56:35;;;;;;;;;;;;;;;;;;2074636;26;8071;-65
2024/04/10 05:57:32;;;;;;;;;;;;;;;;;;2074124;26;7003;-65
2024/04/10 05:58:31;;;;;;;;;;;;;;;;;;2073566;26;7011;-65
2024/04/10 05:59:29;;;;;;;;;;;;;;;;;;2075006;26;7069;-65
2024/04/10 06:00:26;;;;;;;;;;;;;;;;;;2076186;26;7003;-65
2024/04/10 06:01:24;;;;;;;;;;;;;;;;;;2074227;26;8867;-65
2024/04/10 06:02:22;;;;;;;;;;;;;;;;;;2074868;26;7004;-66
2024/04/10 06:03:19;;;;;;;;;;;;;;;;;;2074720;26;8114;-65
2024/04/10 06:04:17;;;;;;;;;;;;;;;;;;2075115;26;7116;-65
2024/04/10 06:05:15;;;;;;;;;;;;;;;;;;2075228;26;8381;-65
2024/04/10 06:06:13;;;;;;;;;;;;;;;;;;2074793;26;7065;-65
2024/04/10 06:07:10;;;;;;;;;;;;;;;;;;2075855;26;7022;-65
2024/04/10 06:08:08;;;;;;;;;;;;;;;;;;2075540;26;8126;-65
2024/04/10 06:09:05;;;;;;;;;;;;;;;;;;2075283;26;7191;-65
2024/04/10 06:10:04;;;;;;;;;;;;;;;;;;2075114;26;7151;-65
2024/04/10 06:11:02;;;;;;;;;;;;;;;;;;2075211;26;7158;-65
2024/04/10 06:12:00;;;;;;;;;;;;;;;;;;2074473;26;8095;-66
2024/04/10 06:12:57;;;;;;;;;;;;;;;;;;2074567;26;7004;-65
2024/04/10 06:13:57;;;;;;;;;;;;;;;;;;2073920;26;7008;-65
2024/04/10 06:14:55;;;;;;;;;;;;;;;;;;2074888;26;8138;-65
2024/04/10 06:16:02;;;;;;;;;;;;;;;;;;2074145;26;9166;-65
2024/04/10 06:17:00;;;;;;;;;;;;;;;;;;2074778;26;7003;-65
2024/04/10 06:17:57;;;;;;;;;;;;;;;;;;2074729;26;7318;-65
2024/04/10 06:18:55;;;;;;;;;;;;;;;;;;2073507;26;8012;-65
2024/04/10 06:19:55;;;;;;;;;;;;;;;;;;2073023;26;8079;-65
2024/04/10 06:21:00;;;;;;;;;;;;;;;;;;2075194;26;7007;-65
2024/04/10 06:21:57;;;;;;;;;;;;;;;;;;2074706;26;8065;-65
2024/04/10 06:22:55;;;;;;;;;;;;;;;;;;2074988;26;7306;-65
2024/04/10 06:23:52;;;;;;;;;;;;;;;;;;2075751;26;8184;-65
2024/04/10 06:24:51;;;;;;;;;;;;;;;;;;2074334;26;7012;-65
2024/04/10 06:25:52;;;;;;;;;;;;;;;;;;2074402;26;7003;-65
2024/04/10 06:26:50;;;;;;;;;;;;;;;;;;2074463;26;7004;-66
2024/04/10 06:27:48;;;;;;;;;;;;;;;;;;2075143;26;7003;-65
2024/04/10 06:28:46;;;;;;;;;;;;;;;;;;2074764;26;7004;-65
2024/04/10 06:29:46;;;;;;;;;;;;;;;;;;2075098;26;8188;-65
2024/04/10 06:30:44;;;;;;;;;;;;;;;;;;2074489;26;7008;-65
2024/04/10 06:31:41;;;;;;;;;;;;;;;;;;2072785;26;7003;-65
2024/04/10 06:32:39;;;;;;;;;;;;;;;;;;2074773;26;7054;-66
2024/04/10 06:33:37;;;;;;;;;;;;;;;;;;2074606;26;7062;-65
2024/04/10 06:34:35;;;;;;;;;;;;;;;;;;2073807;26;7091;-65
2024/04/10 06:35:32;;;;;;;;;;;;;;;;;;2073625;26;7140;-65
2024/04/10 06:36:30;;;;;;;;;;;;;;;;;;2086055;26;7065;-65
2024/04/10 06:37:28;;;;;;;;;;;;;;;;;;2075557;26;7000;-65
2024/04/10 06:38:26;;;;;;;;;;;;;;;;;;2074920;26;8298;-65
2024/04/10 06:39:23;;;;;;;;;;;;;;;;;;2075275;26;6999;-66
2024/04/10 06:40:21;;;;;;;;;;;;;;;;;;2074661;26;8025;-65
2024/04/10 06:41:18;;;;;;;;;;;;;;;;;;2074775;26;8089;-65
2024/04/10 06:42:16;;;;;;;;;;;;;;;;;;2074728;26;7374;-65
2024/04/10 06:43:13;;;;;;;;;;;;;;;;;;2075315;26;7205;-65
2024/04/10 06:44:11;;;;;;;;;;;;;;;;;;2075377;26;8304;-66
2024/04/10 06:45:08;;;;;;;;;;;;;;;;;;2075448;26;8005;-65
2024/04/10 06:46:10;;;;;;;;;;;;;;;;;;2075307;26;8078;-65